Time;durP1;ratioP1;P1;durP2;ratioP2;P2;SDS_P1;SDS_P2;PMS_P1;PMS_P2;Temp;Humidity;BMP_temperature;BMP_pressure;BME280_temperature;BME280_humidity;BME280_pressure;Samples;Min_cycle;Max_cycle;Signal;HPM_P1;HPM_P2
2021/07/24 00:01:29;;;;;;;16.13;10.85;;;;;;;16.49;74.10;98309.06;6101642;23;20436;-76
2021/07/24 00:03:55;;;;;;;15.20;10.55;;;;;;;16.50;73.98;98305.34;6101513;23;20024;-77
2021/07/24 00:06:26;;;;;;;13.23;11.82;;;;;;;16.61;73.57;98310.28;6126715;23;20174;-76
2021/07/24 00:08:52;;;;;;;11.85;10.63;;;;;;;16.57;73.62;98298.19;6125886;23;20028;-76
2021/07/24 00:11:18;;;;;;;12.65;11.27;;;;;;;16.56;73.76;98298.38;6125765;23;20044;-77
2021/07/24 00:13:43;;;;;;;13.40;11.27;;;;;;;16.54;73.39;98306.66;6151828;23;20041;-77
2021/07/24 00:16:09;;;;;;;12.43;10.98;;;;;;;16.48;73.92;98315.50;6151550;23;20086;-77
2021/07/24 00:18:35;;;;;;;12.88;11.18;;;;;;;16.52;73.58;98311.41;6151568;23;20080;-77
2021/07/24 00:21:01;;;;;;;12.30;11.10;;;;;;;16.59;73.35;98316.91;6151540;23;20017;-77
2021/07/24 00:23:27;;;;;;;13.82;10.50;;;;;;;16.57;73.03;98311.69;6151064;23;20030;-76
2021/07/24 00:25:53;;;;;;;12.35;11.18;;;;;;;16.59;73.13;98316.91;6151878;23;20025;-77
2021/07/24 00:28:19;;;;;;;11.35;10.35;;;;;;;16.57;73.24;98313.53;6100938;23;20040;-77
2021/07/24 00:30:44;;;;;;;13.40;11.20;;;;;;;16.54;73.41;98319.31;6151018;23;20021;-76
2021/07/24 00:33:17;;;;;;;12.88;10.57;;;;;;;16.53;73.47;98323.88;6125570;23;20025;-77
2021/07/24 00:35:46;;;;;;;12.85;10.80;;;;;;;16.53;73.02;98326.56;6151247;23;20029;-77
2021/07/24 00:38:12;;;;;;;14.98;10.98;;;;;;;16.48;73.35;98329.00;6125344;23;20022;-77
2021/07/24 00:40:41;;;;;;;13.23;10.55;;;;;;;16.45;73.54;98332.88;6101432;23;20025;-77
2021/07/24 00:43:07;;;;;;;12.20;10.88;;;;;;;16.46;73.33;98331.84;6125876;23;20029;-76
2021/07/24 00:45:46;;;;;;;12.00;10.80;;;;;;;16.34;73.44;98329.81;6101372;23;20356;-76
2021/07/24 00:48:22;;;;;;;;;;;;;;;16.41;73.46;98336.13;6230066;22;20021;-76
2021/07/24 00:51:10;;;;;;;14.27;10.77;;;;;;;16.37;73.68;98332.97;6150138;23;19948;-76
2021/07/24 00:53:36;;;;;;;12.30;11.07;;;;;;;16.31;73.65;98330.16;6125492;23;20064;-76
2021/07/24 00:56:03;;;;;;;11.82;10.45;;;;;;;16.33;73.57;98349.72;6151280;23;20052;-76
2021/07/24 00:58:31;;;;;;;14.35;11.18;;;;;;;16.31;73.83;98343.66;6101486;23;20099;-77
2021/07/24 01:00:57;;;;;;;12.93;11.48;;;;;;;16.35;73.70;98336.88;6125337;23;20032;-76
2021/07/24 01:03:23;;;;;;;15.50;12.30;;;;;;;16.44;73.46;98341.19;6151598;23;20025;-77
2021/07/24 01:05:50;;;;;;;13.27;11.32;;;;;;;16.54;73.39;98340.88;6149919;23;20021;-77
2021/07/24 01:08:17;;;;;;;12.70;11.43;;;;;;;16.64;72.83;98341.44;6203061;23;20022;-77
2021/07/24 01:10:43;;;;;;;17.42;10.88;;;;;;;16.70;72.64;98343.41;6125310;23;20087;-76
2021/07/24 01:13:10;;;;;;;12.30;11.00;;;;;;;16.72;72.41;98350.28;6125840;23;20021;-76
2021/07/24 01:15:36;;;;;;;12.73;10.75;;;;;;;16.79;72.17;98350.41;6125266;23;20025;-77
2021/07/24 01:18:02;;;;;;;14.25;11.77;;;;;;;16.88;71.74;98348.44;6149777;23;20044;-76
2021/07/24 01:20:28;;;;;;;14.70;10.75;;;;;;;16.90;71.80;98336.44;6151201;23;20375;-76
2021/07/24 01:22:55;;;;;;;11.80;10.68;;;;;;;16.96;71.72;98351.03;6228552;22;20398;-76
2021/07/24 01:25:22;;;;;;;13.32;10.65;;;;;;;16.97;71.43;98352.75;6248383;22;20072;-76
2021/07/24 01:27:49;;;;;;;12.23;10.95;;;;;;;16.99;71.28;98356.06;6120513;23;20025;-76
2021/07/24 01:30:15;;;;;;;12.95;11.73;;;;;;;17.14;70.85;98361.44;6144451;23;20046;-76
2021/07/24 01:32:42;;;;;;;12.68;11.40;;;;;;;17.15;70.49;98355.88;6120560;23;20021;-77
2021/07/24 01:35:10;;;;;;;14.88;11.85;;;;;;;17.14;70.75;98367.69;6095290;23;20022;-77
2021/07/24 01:37:36;;;;;;;15.02;11.45;;;;;;;17.04;70.70;98364.47;6121747;23;20022;-76
2021/07/24 01:40:05;;;;;;;14.45;10.20;;;;;;;16.99;70.68;98361.47;6120216;23;20022;-76
2021/07/24 01:42:31;;;;;;;13.43;11.07;;;;;;;17.09;70.38;98364.72;6120202;23;20111;-76
2021/07/24 01:44:59;;;;;;;11.55;10.45;;;;;;;17.07;70.93;98368.63;6096021;23;20037;-76
2021/07/24 01:47:27;;;;;;;15.38;11.60;;;;;;;17.16;70.52;98372.91;6120443;23;20353;-76
2021/07/24 01:52:51;;;;;;;13.18;10.13;;;;;;;17.24;69.91;98376.34;6121663;23;20022;-78
2021/07/24 01:55:37;;;;;;;13.00;10.23;;;;;;;17.36;69.99;98378.56;6121009;23;20030;-77
2021/07/24 01:58:12;;;;;;;11.52;10.32;;;;;;;17.46;69.68;98381.81;6075971;23;20437;-77
2021/07/24 02:00:44;;;;;;;14.50;12.40;;;;;;;17.57;69.37;98375.06;6050821;23;20022;-77
2021/07/24 02:03:28;;;;;;;13.02;11.73;;;;;;;17.66;69.12;98390.97;6120325;23;20404;-77
2021/07/24 02:06:27;;;;;;;13.23;11.82;;;;;;;17.78;68.85;98382.38;6103741;23;20368;-78
2021/07/24 02:09:11;;;;;;;12.82;11.55;;;;;;;17.84;68.30;98387.84;6119782;23;20022;-77
2021/07/24 02:11:39;;;;;;;19.10;12.93;;;;;;;17.92;68.26;98384.19;6095995;23;20080;-77
2021/07/24 02:14:05;;;;;;;15.70;13.05;;;;;;;17.98;67.92;98383.44;6119894;23;20018;-77
2021/07/24 02:16:33;;;;;;;17.40;13.95;;;;;;;18.06;67.88;98388.69;6119669;23;20022;-77
2021/07/24 02:18:59;;;;;;;14.77;13.30;;;;;;;18.19;67.87;98394.22;6119789;23;20033;-77
2021/07/24 02:21:31;;;;;;;15.05;13.48;;;;;;;18.33;67.29;98391.63;6119796;23;20076;-77
2021/07/24 02:23:58;;;;;;;14.57;13.05;;;;;;;18.42;67.18;98385.03;6097256;22;20064;-77
2021/07/24 02:26:24;;;;;;;15.20;13.65;;;;;;;18.53;66.76;98386.38;6150902;23;20021;-77
2021/07/24 02:28:50;;;;;;;16.45;13.18;;;;;;;18.63;66.79;98395.81;6124695;23;20065;-77
2021/07/24 02:31:16;;;;;;;13.95;12.00;;;;;;;18.73;66.06;98397.34;6100542;23;20045;-77
2021/07/24 02:33:42;;;;;;;12.65;11.35;;;;;;;18.81;65.73;98402.66;6100552;23;20017;-76
2021/07/24 02:36:14;;;;;;;13.45;10.85;;;;;;;18.87;65.79;98404.53;6150861;23;20021;-77
2021/07/24 02:38:40;;;;;;;20.67;9.65;;;;;;;18.79;65.02;98408.25;6149827;23;20087;-77
2021/07/24 02:41:06;;;;;;;17.15;8.68;;;;;;;18.68;65.30;98406.03;6124542;23;20452;-77
2021/07/24 02:43:32;;;;;;;15.15;9.25;;;;;;;18.64;65.52;98400.19;6150643;23;20099;-77
2021/07/24 02:45:58;;;;;;;9.68;8.77;;;;;;;18.76;65.75;98405.91;6124544;23;20025;-76
2021/07/24 02:48:26;;;;;;;14.85;9.38;;;;;;;18.91;65.53;98411.22;6101873;23;20117;-77
2021/07/24 02:51:21;;;;;;;16.63;10.80;;;;;;;18.96;65.01;98414.19;6168023;22;20021;-77
2021/07/24 02:53:49;;;;;;;17.50;11.27;;;;;;;18.96;65.05;98405.22;6230545;22;20027;-78
2021/07/24 02:56:16;;;;;;;14.90;12.73;;;;;;;18.99;64.88;98419.19;6125631;23;20025;-77
2021/07/24 02:58:42;;;;;;;19.08;14.25;;;;;;;19.07;65.03;98407.34;6125918;23;20022;-77
2021/07/24 03:01:08;;;;;;;20.30;15.10;;;;;;;19.14;64.92;98403.69;6150417;23;20067;-78
2021/07/24 03:03:35;;;;;;;18.63;16.58;;;;;;;19.25;64.49;98406.81;6126174;23;20021;-77
2021/07/24 03:06:01;;;;;;;18.70;16.25;;;;;;;19.29;64.63;98402.69;6152046;23;20059;-79
2021/07/24 03:08:27;;;;;;;23.95;19.08;;;;;;;19.29;63.73;98410.81;6152229;23;20172;-76
2021/07/24 03:10:52;;;;;;;24.33;20.38;;;;;;;19.21;64.08;98402.84;6125873;23;20024;-76
2021/07/24 03:13:18;;;;;;;16.98;13.30;;;;;;;19.05;64.87;98415.69;6151870;22;20175;-77
2021/07/24 03:15:44;;;;;;;17.48;12.73;;;;;;;19.19;64.38;98413.06;6126136;23;20063;-75
2021/07/24 03:18:10;;;;;;;15.18;13.77;;;;;;;19.16;64.59;98417.84;6126272;23;20017;-75
2021/07/24 03:20:37;;;;;;;17.90;14.20;;;;;;;19.17;64.66;98411.38;6125597;23;20031;-75
2021/07/24 03:23:03;;;;;;;15.27;13.35;;;;;;;19.30;64.31;98409.78;6077517;23;20048;-76
2021/07/24 03:25:30;;;;;;;16.17;14.65;;;;;;;19.35;63.98;98416.25;6125225;23;20017;-76
2021/07/24 03:27:55;;;;;;;21.27;14.95;;;;;;;19.38;63.81;98415.88;6125622;23;20043;-75
2021/07/24 03:30:21;;;;;;;18.17;14.55;;;;;;;19.37;64.12;98416.91;6151714;23;20452;-78
2021/07/24 03:32:47;;;;;;;18.77;16.75;;;;;;;19.52;64.16;98405.91;6151930;23;20022;-77
2021/07/24 03:35:13;;;;;;;18.17;16.25;;;;;;;19.58;63.25;98413.22;6101080;23;20348;-75
2021/07/24 03:37:39;;;;;;;19.98;17.27;;;;;;;19.77;63.67;98408.09;6151964;23;20352;-77
2021/07/24 03:40:05;;;;;;;20.48;17.83;;;;;;;19.94;63.60;98416.72;6126083;23;20349;-78
2021/07/24 03:42:31;;;;;;;22.20;17.77;;;;;;;20.03;62.56;98410.88;6151819;23;20017;-78
2021/07/24 03:44:57;;;;;;;22.30;17.80;;;;;;;19.97;62.63;98395.44;6151577;23;20028;-78
2021/07/24 03:47:23;;;;;;;25.40;17.17;;;;;;;19.99;62.69;98409.63;6125477;23;20021;-79
2021/07/24 03:49:49;;;;;;;23.00;19.63;;;;;;;20.16;62.35;98399.22;6151106;23;20463;-77
2021/07/24 03:52:15;;;;;;;30.60;20.92;;;;;;;20.20;62.05;98405.03;6150216;23;20028;-74
2021/07/24 03:54:40;;;;;;;30.10;22.17;;;;;;;20.03;61.79;98394.59;6151369;23;20021;-78
2021/07/24 03:57:06;;;;;;;30.90;20.40;;;;;;;20.21;61.26;98395.88;6075922;23;20018;-80
2021/07/24 03:59:32;;;;;;;26.35;23.42;;;;;;;20.40;61.22;98395.03;6124446;23;20025;-77
2021/07/24 04:01:58;;;;;;;27.40;22.85;;;;;;;20.50;60.81;98392.78;6125183;23;20067;-78
2021/07/24 04:04:25;;;;;;;27.20;23.27;;;;;;;20.51;60.57;98397.16;6149995;23;20025;-79
2021/07/24 04:06:51;;;;;;;29.85;25.67;;;;;;;20.46;60.07;98398.78;6125337;23;20448;-79
2021/07/24 04:09:17;;;;;;;29.25;26.15;;;;;;;20.44;60.49;98401.72;6125051;23;20021;-79
2021/07/24 04:11:43;;;;;;;34.80;24.52;;;;;;;20.71;60.67;98402.56;6103979;23;20021;-77
2021/07/24 04:14:09;;;;;;;28.50;24.08;;;;;;;20.98;60.33;98400.63;6129383;23;20079;-79
2021/07/24 04:16:34;;;;;;;17.77;14.60;;;;;;;21.12;58.23;98406.03;6152207;23;20356;-79
2021/07/24 04:19:00;;;;;;;21.63;17.15;;;;;;;21.00;58.22;98389.56;6151429;23;20048;-79
2021/07/24 04:21:26;;;;;;;17.48;15.73;;;;;;;21.16;58.74;98402.69;6151382;23;20401;-78
2021/07/24 04:23:52;;;;;;;21.25;15.57;;;;;;;21.25;58.23;98403.28;6100562;23;20028;-78
2021/07/24 04:26:18;;;;;;;23.25;15.93;;;;;;;21.31;58.05;98419.56;6101283;23;20412;-80
2021/07/24 04:28:44;;;;;;;18.70;16.75;;;;;;;21.41;57.44;98408.28;6150687;22;20018;-79
2021/07/24 04:31:14;;;;;;;18.52;13.40;;;;;;;21.39;56.78;98410.38;6203742;23;20029;-78
2021/07/24 04:33:40;;;;;;;23.50;14.15;;;;;;;21.44;56.03;98407.84;6077342;23;20024;-77
2021/07/24 04:36:06;;;;;;;21.50;14.40;;;;;;;21.36;55.96;98410.78;6151070;23;20025;-77
2021/07/24 04:38:32;;;;;;;13.90;10.32;;;;;;;21.38;55.85;98413.31;6151197;23;20074;-84
2021/07/24 04:40:58;;;;;;;9.93;8.98;;;;;;;21.34;56.21;98412.91;6101031;23;20117;-78
2021/07/24 04:43:23;;;;;;;14.27;8.95;;;;;;;21.34;56.29;98418.34;6150282;23;20021;-76
2021/07/24 04:45:49;;;;;;;33.92;9.48;;;;;;;21.45;55.76;98417.69;6150547;23;20063;-75
2021/07/24 04:48:15;;;;;;;15.45;7.93;;;;;;;21.64;56.04;98428.69;6125267;23;20351;-75
2021/07/24 04:50:46;;;;;;;10.18;8.45;;;;;;;21.76;56.09;98426.94;6151463;23;20021;-75
2021/07/24 04:53:12;;;;;;;8.40;7.35;;;;;;;21.85;55.41;98424.81;6101070;23;20021;-75
2021/07/24 04:55:38;;;;;;;8.50;7.50;;;;;;;21.94;55.44;98429.78;6100788;23;20044;-78
2021/07/24 04:58:08;;;;;;;15.13;6.40;;;;;;;22.09;54.46;98425.94;6124963;23;20025;-80
2021/07/24 05:00:37;;;;;;;11.88;6.65;;;;;;;22.11;54.55;98423.81;6151080;23;20055;-76
2021/07/24 05:03:04;;;;;;;9.63;8.35;;;;;;;22.30;54.19;98439.19;6101278;23;20071;-77
2021/07/24 05:05:30;;;;;;;10.30;6.40;;;;;;;22.47;54.16;98426.72;6151664;23;20028;-76
2021/07/24 05:07:56;;;;;;;9.13;6.00;;;;;;;22.73;53.53;98424.84;6076444;23;20034;-77
2021/07/24 05:10:21;;;;;;;9.55;5.65;;;;;;;22.92;53.39;98431.19;6077075;23;20092;-77
2021/07/24 05:12:47;;;;;;;9.70;6.22;;;;;;;23.01;52.54;98425.22;6151385;23;20026;-76
2021/07/24 05:15:13;;;;;;;7.40;5.60;;;;;;;23.03;52.42;98428.56;6100197;23;20049;-76
2021/07/24 05:17:40;;;;;;;13.27;7.03;;;;;;;23.06;52.41;98437.34;6100880;23;20459;-78
2021/07/24 05:20:07;;;;;;;9.68;5.63;;;;;;;23.10;51.61;98441.28;6125060;23;20123;-76
2021/07/24 05:22:33;;;;;;;16.85;6.75;;;;;;;23.00;51.80;98445.34;6151182;23;20021;-75
2021/07/24 05:24:59;;;;;;;6.85;5.15;;;;;;;22.98;50.77;98447.50;6151028;22;20029;-79
2021/07/24 05:27:24;;;;;;;11.52;7.10;;;;;;;22.87;51.34;98442.75;6151179;23;20367;-76
2021/07/24 05:29:50;;;;;;;8.95;6.55;;;;;;;23.03;51.76;98450.38;6124393;23;20374;-75
2021/07/24 05:32:16;;;;;;;11.40;6.00;;;;;;;23.20;51.40;98445.13;6124983;23;20017;-78
2021/07/24 05:34:42;;;;;;;7.78;5.50;;;;;;;23.29;50.67;98442.97;6150861;23;20108;-74
2021/07/24 05:37:08;;;;;;;4.55;4.10;;;;;;;23.39;50.21;98437.81;6125048;23;20025;-74
2021/07/24 05:39:34;;;;;;;6.78;4.75;;;;;;;23.33;50.24;98446.09;6150929;23;20436;-76
2021/07/24 05:42:00;;;;;;;10.90;4.82;;;;;;;23.46;50.58;98435.00;6100499;23;20017;-76
2021/07/24 05:44:26;;;;;;;5.55;4.30;;;;;;;23.63;49.35;98448.88;6150458;23;20017;-76
2021/07/24 05:46:52;;;;;;;6.13;3.88;;;;;;;23.46;49.70;98444.00;6150984;23;20048;-77
2021/07/24 05:49:18;;;;;;;5.10;3.80;;;;;;;23.64;49.78;98450.53;6150626;22;20021;-79
2021/07/24 05:51:45;;;;;;;6.05;4.10;;;;;;;23.84;49.43;98448.41;6124967;23;20022;-76
2021/07/24 05:54:11;;;;;;;4.47;3.35;;;;;;;23.84;48.19;98451.13;6150805;23;20024;-76
2021/07/24 05:56:37;;;;;;;6.28;3.92;;;;;;;23.64;48.77;98445.06;6150872;23;20021;-78
2021/07/24 05:59:04;;;;;;;4.35;4.00;;;;;;;23.75;49.09;98444.34;6124432;23;20348;-74
2021/07/24 06:01:29;;;;;;;3.97;3.65;;;;;;;23.96;48.73;98438.41;6100345;23;20079;-77
2021/07/24 06:03:55;;;;;;;5.30;3.80;;;;;;;24.23;48.71;98443.47;6124593;23;20376;-77
2021/07/24 06:06:22;;;;;;;5.32;3.42;;;;;;;24.50;45.99;98443.91;6150334;23;20022;-73
2021/07/24 06:08:48;;;;;;;5.50;3.42;;;;;;;24.21;43.85;98445.59;6150275;23;20021;-74
2021/07/24 06:11:14;;;;;;;8.57;4.18;;;;;;;24.04;45.62;98431.78;6124558;23;20021;-74
2021/07/24 06:13:40;;;;;;;5.45;4.15;;;;;;;24.46;45.23;98442.72;6124413;23;20022;-73
2021/07/24 06:16:09;;;;;;;4.88;3.67;;;;;;;24.58;43.67;98446.31;6100311;23;20384;-74
2021/07/24 06:18:35;;;;;;;5.65;4.28;;;;;;;24.61;44.56;98431.34;6101212;23;20028;-73
2021/07/24 06:21:01;;;;;;;5.15;3.97;;;;;;;24.62;43.86;98428.38;6100905;23;20037;-75
2021/07/24 06:23:27;;;;;;;4.40;4.00;;;;;;;24.69;44.07;98433.72;6124745;23;20075;-75
2021/07/24 06:25:53;;;;;;;4.93;4.00;;;;;;;24.85;44.42;98433.03;6124586;23;20021;-75
2021/07/24 06:28:20;;;;;;;5.40;4.00;;;;;;;25.09;44.34;98441.25;6149956;23;20108;-74
2021/07/24 06:30:46;;;;;;;5.70;3.92;;;;;;;24.83;44.32;98431.63;6150770;23;20024;-76
2021/07/24 06:33:12;;;;;;;6.28;3.65;;;;;;;24.86;42.77;98442.91;6124756;23;20052;-77
2021/07/24 06:35:38;;;;;;;7.32;3.80;;;;;;;24.93;43.38;98437.31;6150599;23;20021;-76
2021/07/24 06:38:04;;;;;;;4.93;3.53;;;;;;;25.13;41.88;98442.47;6150597;23;20049;-80
2021/07/24 06:40:30;;;;;;;3.45;3.22;;;;;;;24.56;41.48;98444.88;6124879;23;20045;-76
2021/07/24 06:42:56;;;;;;;4.03;3.10;;;;;;;24.46;41.70;98443.56;6150083;23;20066;-76
2021/07/24 06:45:22;;;;;;;6.57;3.10;;;;;;;24.77;41.47;98444.31;6099584;23;20033;-76
2021/07/24 06:47:48;;;;;;;11.00;3.40;;;;;;;25.11;41.50;98436.38;6100131;23;20452;-76
2021/07/24 06:50:14;;;;;;;5.65;3.35;;;;;;;25.49;41.50;98441.31;6150091;23;20025;-77
2021/07/24 06:52:40;;;;;;;4.85;3.55;;;;;;;25.26;40.10;98441.38;6075568;23;20100;-76
2021/07/24 06:55:06;;;;;;;4.07;3.70;;;;;;;25.51;40.19;98439.19;6124675;23;20026;-75
2021/07/24 06:57:32;;;;;;;5.28;3.60;;;;;;;25.72;39.80;98432.22;6099750;23;20018;-76
2021/07/24 06:59:58;;;;;;;5.60;3.35;;;;;;;25.70;39.29;98441.75;6051629;23;20013;-76
2021/07/24 07:02:24;;;;;;;4.80;3.40;;;;;;;26.13;39.59;98433.03;6123597;23;20030;-79
2021/07/24 07:04:50;;;;;;;4.18;3.20;;;;;;;26.39;38.05;98448.84;6100027;23;20048;-76
2021/07/24 07:07:20;;;;;;;9.77;3.53;;;;;;;26.02;38.31;98445.72;6150150;23;20093;-78
2021/07/24 07:09:46;;;;;;;4.65;3.30;;;;;;;26.17;38.66;98451.47;6124627;23;20472;-78
2021/07/24 07:12:12;;;;;;;3.63;3.08;;;;;;;26.33;37.72;98463.56;6099419;23;20100;-78
2021/07/24 07:14:38;;;;;;;3.20;2.90;;;;;;;26.59;37.62;98450.31;6124028;23;20385;-77
2021/07/24 07:17:04;;;;;;;8.43;3.42;;;;;;;26.57;38.01;98452.50;6149554;23;20049;-76
2021/07/24 07:19:30;;;;;;;3.40;3.08;;;;;;;26.80;37.64;98451.50;6124317;23;20045;-77
2021/07/24 07:21:56;;;;;;;6.65;3.47;;;;;;;27.11;37.18;98459.13;6100480;23;20104;-77
2021/07/24 07:24:22;;;;;;;6.63;3.30;;;;;;;26.81;36.65;98453.97;6124644;23;20017;-78
2021/07/24 07:26:48;;;;;;;6.22;3.67;;;;;;;26.47;37.82;98457.78;6124534;23;20496;-76
2021/07/24 07:29:13;;;;;;;3.95;3.33;;;;;;;26.49;37.57;98461.97;6124569;23;20049;-75
2021/07/24 07:31:39;;;;;;;3.97;3.15;;;;;;;26.35;36.95;98455.91;6149267;23;20028;-76
2021/07/24 07:34:06;;;;;;;4.28;3.30;;;;;;;26.45;37.09;98455.28;6101552;23;20097;-75
2021/07/24 07:36:37;;;;;;;3.58;3.28;;;;;;;26.63;36.22;98451.50;6125683;23;20049;-77
2021/07/24 07:39:07;;;;;;;3.97;2.90;;;;;;;26.68;36.22;98457.06;6101612;23;20024;-76
2021/07/24 07:41:33;;;;;;;5.78;3.05;;;;;;;27.09;35.31;98449.50;6150319;22;20399;-79
2021/07/24 07:43:59;;;;;;;6.88;2.70;;;;;;;27.35;33.96;98448.81;6149397;23;20013;-78
2021/07/24 07:46:25;;;;;;;3.38;2.60;;;;;;;27.02;33.95;98457.06;6151725;23;20017;-79
2021/07/24 07:48:51;;;;;;;5.82;2.70;;;;;;;27.18;34.14;98448.00;6151898;23;20014;-77
2021/07/24 07:51:17;;;;;;;4.68;3.00;;;;;;;27.30;33.25;98445.13;6151852;22;20045;-77
2021/07/24 07:53:42;;;;;;;2.92;2.60;;;;;;;27.65;32.73;98453.03;6125976;23;20032;-78
2021/07/24 07:56:11;;;;;;;3.58;2.58;;;;;;;27.73;32.46;98449.84;6151879;23;20022;-77
2021/07/24 07:58:37;;;;;;;;;;;;;;;27.90;33.02;98451.72;6150785;23;20129;-77
2021/07/24 08:01:09;;;;;;;5.35;2.65;;;;;;;28.16;33.17;98453.66;6151696;22;19932;-77
2021/07/24 08:03:47;;;;;;;6.35;2.80;;;;;;;28.61;33.06;98438.72;6220932;23;20082;-77
2021/07/24 08:06:13;;;;;;;9.60;2.75;;;;;;;28.69;31.35;98451.97;6149861;23;20391;-77
2021/07/24 08:08:39;;;;;;;3.58;2.95;;;;;;;28.48;31.88;98447.41;6151629;23;20092;-76
2021/07/24 08:11:05;;;;;;;4.07;2.60;;;;;;;27.91;32.56;98439.63;6150162;22;20021;-76
2021/07/24 08:13:31;;;;;;;4.53;2.95;;;;;;;27.78;32.76;98441.69;6077593;23;20091;-78
2021/07/24 08:15:56;;;;;;;2.80;2.60;;;;;;;28.02;32.71;98441.41;6150439;23;20076;-77
2021/07/24 08:18:22;;;;;;;3.58;2.30;;;;;;;27.92;31.74;98457.78;6077532;23;20021;-77
2021/07/24 08:20:48;;;;;;;4.20;2.50;;;;;;;28.46;31.30;98450.41;6101084;23;20029;-80
2021/07/24 08:23:14;;;;;;;2.30;2.10;;;;;;;29.10;30.73;98457.00;6100993;23;20021;-76
2021/07/24 08:25:41;;;;;;;2.55;2.22;;;;;;;29.39;29.43;98449.22;6101233;23;20024;-78
2021/07/24 08:28:07;;;;;;;2.17;2.08;;;;;;;29.47;30.03;98452.28;6125818;23;20068;-75
2021/07/24 08:30:36;;;;;;;4.68;2.78;;;;;;;29.49;29.95;98454.78;6077558;23;20045;-75
2021/07/24 08:33:02;;;;;;;4.68;2.30;;;;;;;29.20;28.76;98455.16;6151630;23;20025;-75
2021/07/24 08:35:28;;;;;;;5.22;2.47;;;;;;;28.33;29.39;98454.38;6125676;23;20348;-75
2021/07/24 08:37:54;;;;;;;6.43;2.25;;;;;;;27.71;30.62;98460.25;6125969;23;20037;-74
2021/07/24 08:40:20;;;;;;;2.88;2.13;;;;;;;27.61;30.91;98457.38;6101289;23;20464;-77
2021/07/24 08:42:46;;;;;;;6.95;2.47;;;;;;;27.91;30.52;98464.34;6101359;23;20402;-75
2021/07/24 08:45:19;;;;;;;2.60;2.40;;;;;;;28.53;29.88;98453.78;6151301;23;20022;-76
2021/07/24 08:47:46;;;;;;;2.50;2.25;;;;;;;28.43;29.46;98455.59;6127614;23;20024;-77
2021/07/24 08:50:13;;;;;;;2.92;2.25;;;;;;;28.12;30.33;98455.25;6055230;23;20017;-79
2021/07/24 08:52:39;;;;;;;3.33;2.30;;;;;;;28.04;29.88;98461.22;6102077;23;20021;-77
2021/07/24 08:55:06;;;;;;;5.43;2.20;;;;;;;27.55;30.44;98463.88;6077517;23;20078;-77
2021/07/24 08:57:37;;;;;;;4.43;2.30;;;;;;;27.66;30.25;98460.19;6151513;23;20072;-76
2021/07/24 09:00:13;;;;;;;2.30;2.10;;;;;;;27.94;30.35;98461.09;6151402;23;20074;-76
2021/07/24 09:02:42;;;;;;;4.82;2.20;;;;;;;27.81;30.12;98463.16;6101672;23;20373;-78
2021/07/24 09:05:09;;;;;;;2.10;2.00;;;;;;;27.71;30.74;98451.16;6125899;23;20025;-79
2021/07/24 09:07:48;;;;;;;6.05;2.50;;;;;;;27.71;30.64;98462.16;6101470;23;20429;-79
2021/07/24 09:10:18;;;;;;;2.20;2.00;;;;;;;27.84;30.75;98448.91;6151826;23;20030;-79
2021/07/24 09:12:45;;;;;;;2.92;2.35;;;;;;;28.23;30.42;98453.44;6125063;23;20460;-79
2021/07/24 09:15:13;;;;;;;3.70;2.20;;;;;;;28.78;30.24;98455.94;6125477;23;20021;-78
2021/07/24 09:17:39;;;;;;;7.10;2.30;;;;;;;28.75;29.69;98455.63;6151390;23;20017;-78
2021/07/24 09:20:06;;;;;;;2.53;2.25;;;;;;;29.00;29.03;98447.59;6125425;23;20025;-77
2021/07/24 09:22:34;;;;;;;2.97;2.30;;;;;;;29.41;29.20;98449.75;6101400;23;20131;-77
2021/07/24 09:25:05;;;;;;;4.13;2.10;;;;;;;29.96;28.48;98440.13;6151187;23;20017;-78
2021/07/24 09:27:30;;;;;;;4.25;2.00;;;;;;;30.39;28.23;98432.50;6254105;22;20021;-76
2021/07/24 09:29:56;;;;;;;5.38;2.42;;;;;;;30.84;28.09;98430.91;6150583;23;20040;-77
2021/07/24 09:32:22;;;;;;;3.05;2.30;;;;;;;30.81;26.96;98443.34;6101164;23;20072;-78
2021/07/24 09:34:48;;;;;;;4.53;2.25;;;;;;;31.02;26.77;98433.09;6125160;23;20440;-79
2021/07/24 09:37:30;;;;;;;2.67;1.90;;;;;;;31.10;25.99;98427.00;6125144;23;20031;-77
2021/07/24 09:40:15;;;;;;;5.03;2.20;;;;;;;31.27;26.18;98436.91;6151502;23;20314;-77
2021/07/24 09:42:40;;;;;;;7.20;2.35;;;;;;;31.69;25.60;98426.28;6104998;23;20025;-76
2021/07/24 09:45:10;;;;;;;4.75;2.25;;;;;;;32.06;25.11;98430.56;6125403;23;20090;-78
2021/07/24 09:47:37;;;;;;;6.07;2.42;;;;;;;32.42;24.88;98433.13;6125329;23;20330;-76
2021/07/24 09:50:10;;;;;;;2.30;2.10;;;;;;;32.35;24.49;98438.16;6101284;23;20520;-77
2021/07/24 09:52:50;;;;;;;2.35;2.15;;;;;;;32.44;25.25;98439.22;6124428;23;20021;-77
2021/07/24 09:55:20;;;;;;;3.45;2.50;;;;;;;32.71;24.56;98438.72;6076977;23;20083;-79
2021/07/24 09:57:46;;;;;;;3.03;2.38;;;;;;;33.14;24.92;98438.94;6125911;23;20092;-78
2021/07/24 10:00:28;;;;;;;4.50;2.10;;;;;;;32.57;24.41;98429.41;6152816;23;20095;-80
2021/07/24 10:03:04;;;;;;;2.90;2.30;;;;;;;31.77;24.87;98440.63;6150900;23;20053;-78
2021/07/24 10:05:40;;;;;;;4.00;2.47;;;;;;;31.50;26.00;98433.56;6229617;23;20063;-78
2021/07/24 10:08:13;;;;;;;4.00;2.25;;;;;;;31.94;25.78;98435.63;6054793;23;20017;-78
2021/07/24 10:10:41;;;;;;;4.57;2.30;;;;;;;32.73;25.67;98439.25;6127739;23;20076;-79
2021/07/24 10:13:08;;;;;;;7.47;2.38;;;;;;;32.94;24.51;98434.38;6104395;23;20094;-79
2021/07/24 10:15:37;;;;;;;5.25;2.40;;;;;;;33.00;24.62;98438.78;6153474;23;20021;-77
2021/07/24 10:18:04;;;;;;;5.50;2.30;;;;;;;33.56;24.07;98440.97;6102731;23;20353;-77
2021/07/24 10:20:30;;;;;;;3.55;2.20;;;;;;;33.68;23.55;98437.78;6102214;23;20018;-79
2021/07/24 10:22:56;;;;;;;5.82;2.28;;;;;;;34.14;23.44;98439.97;6103999;23;20025;-79
2021/07/24 10:25:22;;;;;;;2.50;2.08;;;;;;;34.12;22.80;98435.88;6152992;22;20096;-79
2021/07/24 10:27:48;;;;;;;3.47;2.33;;;;;;;34.63;22.59;98435.09;6125555;23;20037;-80
2021/07/24 10:30:14;;;;;;;2.97;2.17;;;;;;;35.04;22.21;98440.81;6102872;23;20022;-81
2021/07/24 10:32:40;;;;;;;3.58;2.20;;;;;;;35.45;22.15;98440.06;6100774;23;20021;-77
2021/07/24 10:35:06;;;;;;;2.97;2.10;;;;;;;35.53;21.39;98433.81;6125085;23;20022;-78
2021/07/24 10:37:42;;;;;;;4.45;2.00;;;;;;;35.66;21.29;98441.34;6125096;23;20127;-77
2021/07/24 10:42:50;;;;;;;3.80;2.00;;;;;;;35.21;21.08;98435.50;6150806;23;20100;-77
2021/07/24 10:45:31;;;;;;;4.07;2.00;;;;;;;35.61;21.25;98432.25;6150918;23;20070;-77
2021/07/24 10:48:12;;;;;;;2.67;2.15;;;;;;;36.16;20.40;98424.69;6150690;23;20018;-78
2021/07/24 10:50:53;;;;;;;3.25;1.98;;;;;;;36.28;19.83;98429.72;6150808;23;20048;-79
2021/07/24 10:53:20;;;;;;;2.35;2.00;;;;;;;35.63;20.25;98424.44;6124936;23;20018;-77
2021/07/24 10:55:46;;;;;;;2.95;2.15;;;;;;;35.48;20.79;98434.72;6100859;23;20017;-78
2021/07/24 10:58:13;;;;;;;4.05;2.20;;;;;;;35.60;20.55;98430.63;6150426;23;20403;-77
2021/07/24 11:00:52;;;;;;;2.65;1.90;;;;;;;35.71;20.51;98427.31;6100370;23;20021;-78
2021/07/24 11:03:35;;;;;;;5.68;2.30;;;;;;;36.37;20.26;98432.56;6150984;23;20096;-77
2021/07/24 11:06:23;;;;;;;3.35;2.30;;;;;;;37.10;19.65;98428.56;6100512;23;20391;-77
2021/07/24 11:08:57;;;;;;;3.83;2.08;;;;;;;36.80;18.95;98430.16;6151937;23;20393;-79
2021/07/24 11:11:43;;;;;;;9.73;2.20;;;;;;;36.43;19.75;98425.75;6150528;23;20475;-78
2021/07/24 11:14:29;;;;;;;3.47;1.90;;;;;;;36.46;19.30;98423.19;6127117;23;20014;-77
2021/07/24 11:19:34;;;;;;;2.67;2.10;;;;;;;36.06;19.37;98415.75;6151772;23;20105;-79
2021/07/24 11:22:16;;;;;;;4.22;1.80;;;;;;;36.89;19.03;98428.22;6126123;23;20022;-81
2021/07/24 11:24:49;;;;;;;3.10;2.20;;;;;;;37.83;18.85;98422.63;6255115;22;20445;-77
2021/07/24 11:27:15;;;;;;;3.30;2.10;;;;;;;38.23;17.97;98420.59;6127627;23;20013;-79
2021/07/24 11:29:41;;;;;;;3.25;2.00;;;;;;;38.10;18.34;98427.97;6126121;23;20045;-78
2021/07/24 11:32:07;;;;;;;2.10;1.90;;;;;;;38.73;17.85;98422.06;6125919;23;20052;-84
2021/07/24 11:34:36;;;;;;;4.18;1.73;;;;;;;37.80;17.61;98417.69;6077748;23;20018;-78
2021/07/24 11:37:03;;;;;;;3.88;1.90;;;;;;;36.27;18.76;98427.25;6151656;23;20022;-78
2021/07/24 11:39:30;;;;;;;2.28;1.85;;;;;;;35.03;20.01;98428.06;6101772;23;20330;-78